sensor_id;sensor_type;location;lat;lon;timestamp;pressure;altitude;pressure_sealevel;temperature;humidity
6032;BME280;3044;43.232;27.972;2023-02-19T00:01:06;45087.16;;;-143.84;49.91
6032;BME280;3044;43.232;27.972;2023-02-19T00:03:34;45111.91;;;-143.84;49.97
6032;BME280;3044;43.232;27.972;2023-02-19T00:06:03;45077.63;;;-143.84;50.05
6032;BME280;3044;43.232;27.972;2023-02-19T00:08:31;45081.44;;;-143.84;50.01
6032;BME280;3044;43.232;27.972;2023-02-19T00:11:01;45106.19;;;-143.84;49.84
6032;BME280;3044;43.232;27.972;2023-02-19T00:13:29;45092.88;;;-143.84;50.03
6032;BME280;3044;43.232;27.972;2023-02-19T00:15:56;45102.38;;;-143.84;49.99
6032;BME280;3044;43.232;27.972;2023-02-19T00:18:23;45106.19;;;-143.84;50.00
6032;BME280;3044;43.232;27.972;2023-02-19T00:20:50;45111.91;;;-143.84;50.25
6032;BME280;3044;43.232;27.972;2023-02-19T00:23:19;45081.44;;;-143.84;50.54
6032;BME280;3044;43.232;27.972;2023-02-19T00:25:46;45064.31;;;-143.84;49.95
6032;BME280;3044;43.232;27.972;2023-02-19T00:28:13;45079.53;;;-143.84;50.13
6032;BME280;3044;43.232;27.972;2023-02-19T00:30:40;45089.06;;;-143.84;50.08
6032;BME280;3044;43.232;27.972;2023-02-19T00:33:07;45115.72;;;-143.84;50.32
6032;BME280;3044;43.232;27.972;2023-02-19T00:35:34;45077.63;;;-143.84;49.65
6032;BME280;3044;43.232;27.972;2023-02-19T00:38:02;45094.78;;;-143.84;49.99
6032;BME280;3044;43.232;27.972;2023-02-19T00:40:30;45102.38;;;-143.84;49.67
6032;BME280;3044;43.232;27.972;2023-02-19T00:42:58;45096.66;;;-143.84;49.68
6032;BME280;3044;43.232;27.972;2023-02-19T00:45:25;45119.53;;;-143.84;49.45
6032;BME280;3044;43.232;27.972;2023-02-19T00:47:52;45104.28;;;-143.84;49.28
6032;BME280;3044;43.232;27.972;2023-02-19T00:50:19;45102.38;;;-143.84;49.30
6032;BME280;3044;43.232;27.972;2023-02-19T00:52:47;45094.78;;;-143.84;49.38
6032;BME280;3044;43.232;27.972;2023-02-19T00:55:14;45106.19;;;-143.84;49.42
6032;BME280;3044;43.232;27.972;2023-02-19T00:57:43;45090.97;;;-143.84;49.54
6032;BME280;3044;43.232;27.972;2023-02-19T01:00:11;45129.03;;;-143.84;49.58
6032;BME280;3044;43.232;27.972;2023-02-19T01:02:38;45117.63;;;-143.84;49.54
6032;BME280;3044;43.232;27.972;2023-02-19T01:05:06;45092.88;;;-143.84;49.71
6032;BME280;3044;43.232;27.972;2023-02-19T01:07:34;45081.44;;;-143.84;49.64
6032;BME280;3044;43.232;27.972;2023-02-19T01:10:02;45094.78;;;-143.84;49.68
6032;BME280;3044;43.232;27.972;2023-02-19T01:12:30;45096.66;;;-143.84;49.74
6032;BME280;3044;43.232;27.972;2023-02-19T01:14:59;45100.47;;;-143.84;49.81
6032;BME280;3044;43.232;27.972;2023-02-19T01:17:26;45098.56;;;-143.84;49.55
6032;BME280;3044;43.232;27.972;2023-02-19T01:19:53;45089.06;;;-143.84;49.74
6032;BME280;3044;43.232;27.972;2023-02-19T01:22:20;45110.00;;;-143.84;49.51
6032;BME280;3044;43.232;27.972;2023-02-19T01:24:47;45079.53;;;-143.84;49.05
6032;BME280;3044;43.232;27.972;2023-02-19T01:27:14;45089.06;;;-143.84;49.16
6032;BME280;3044;43.232;27.972;2023-02-19T01:29:41;45090.97;;;-143.84;49.20
6032;BME280;3044;43.232;27.972;2023-02-19T01:32:11;45085.25;;;-143.84;49.14
6032;BME280;3044;43.232;27.972;2023-02-19T01:34:38;45102.38;;;-143.84;49.20
6032;BME280;3044;43.232;27.972;2023-02-19T01:37:05;45115.72;;;-143.84;49.20
6032;BME280;3044;43.232;27.972;2023-02-19T01:39:36;45130.94;;;-143.84;49.53
6032;BME280;3044;43.232;27.972;2023-02-19T01:42:04;45125.22;;;-143.84;49.10
6032;BME280;3044;43.232;27.972;2023-02-19T01:47:56;45115.72;;;-143.84;49.02
6032;BME280;3044;43.232;27.972;2023-02-19T01:50:27;45089.06;;;-143.84;49.40
6032;BME280;3044;43.232;27.972;2023-02-19T01:52:54;45108.09;;;-143.84;49.50
6032;BME280;3044;43.232;27.972;2023-02-19T01:55:22;45090.97;;;-143.84;49.08
6032;BME280;3044;43.232;27.972;2023-02-19T01:57:52;45102.38;;;-143.84;49.32
6032;BME280;3044;43.232;27.972;2023-02-19T02:00:21;45089.06;;;-143.84;49.14
6032;BME280;3044;43.232;27.972;2023-02-19T02:02:53;45089.06;;;-143.84;49.12
6032;BME280;3044;43.232;27.972;2023-02-19T02:05:35;45110.00;;;-143.84;48.76
6032;BME280;3044;43.232;27.972;2023-02-19T02:08:04;45077.63;;;-143.84;48.87
6032;BME280;3044;43.232;27.972;2023-02-19T02:10:49;45110.00;;;-143.84;48.83
6032;BME280;3044;43.232;27.972;2023-02-19T02:13:16;45094.78;;;-143.84;48.74
6032;BME280;3044;43.232;27.972;2023-02-19T02:15:49;45094.78;;;-143.84;48.45
6032;BME280;3044;43.232;27.972;2023-02-19T02:18:27;45096.66;;;-143.84;48.61
6032;BME280;3044;43.232;27.972;2023-02-19T02:21:19;45102.38;;;-143.84;48.54
6032;BME280;3044;43.232;27.972;2023-02-19T02:24:07;45125.22;;;-143.84;48.14
6032;BME280;3044;43.232;27.972;2023-02-19T02:26:47;45083.34;;;-143.84;47.88
6032;BME280;3044;43.232;27.972;2023-02-19T02:29:30;45090.97;;;-143.84;47.42
6032;BME280;3044;43.232;27.972;2023-02-19T02:32:07;45075.72;;;-143.84;47.17
6032;BME280;3044;43.232;27.972;2023-02-19T02:34:44;45094.78;;;-143.84;47.34
6032;BME280;3044;43.232;27.972;2023-02-19T02:37:14;45096.66;;;-143.84;47.03
6032;BME280;3044;43.232;27.972;2023-02-19T02:39:43;45083.34;;;-143.84;46.78
6032;BME280;3044;43.232;27.972;2023-02-19T02:42:11;45100.47;;;-143.84;46.27
6032;BME280;3044;43.232;27.972;2023-02-19T02:44:54;45110.00;;;-143.84;46.14
6032;BME280;3044;43.232;27.972;2023-02-19T02:47:41;45075.72;;;-143.84;46.04
6032;BME280;3044;43.232;27.972;2023-02-19T02:50:15;45102.38;;;-143.84;46.03
6032;BME280;3044;43.232;27.972;2023-02-19T02:52:48;45146.19;;;-143.84;45.81
6032;BME280;3044;43.232;27.972;2023-02-19T02:55:37;45087.16;;;-143.84;45.64
6032;BME280;3044;43.232;27.972;2023-02-19T02:58:07;45054.78;;;-143.84;45.29
6032;BME280;3044;43.232;27.972;2023-02-19T03:00:35;45089.06;;;-143.84;45.44
6032;BME280;3044;43.232;27.972;2023-02-19T03:03:21;45117.63;;;-143.84;45.43
6032;BME280;3044;43.232;27.972;2023-02-19T03:05:51;45102.38;;;-143.84;45.35
6032;BME280;3044;43.232;27.972;2023-02-19T03:08:25;45090.97;;;-143.84;45.39
6032;BME280;3044;43.232;27.972;2023-02-19T03:10:56;45075.72;;;-143.84;45.38
6032;BME280;3044;43.232;27.972;2023-02-19T03:13:46;45104.28;;;-143.84;45.34
6032;BME280;3044;43.232;27.972;2023-02-19T03:16:33;45077.63;;;-143.84;45.07
6032;BME280;3044;43.232;27.972;2023-02-19T03:19:21;45094.78;;;-143.84;45.13
6032;BME280;3044;43.232;27.972;2023-02-19T03:21:53;45068.13;;;-143.84;44.84
6032;BME280;3044;43.232;27.972;2023-02-19T03:24:26;45110.00;;;-143.84;44.75
6032;BME280;3044;43.232;27.972;2023-02-19T03:27:13;45110.00;;;-143.84;44.69
6032;BME280;3044;43.232;27.972;2023-02-19T03:29:43;45100.47;;;-143.84;44.73
6032;BME280;3044;43.232;27.972;2023-02-19T03:32:16;45089.06;;;-143.84;44.58
6032;BME280;3044;43.232;27.972;2023-02-19T03:34:50;45087.16;;;-143.84;44.52
6032;BME280;3044;43.232;27.972;2023-02-19T03:37:23;45075.72;;;-143.84;44.75
6032;BME280;3044;43.232;27.972;2023-02-19T03:39:52;45108.09;;;-143.84;44.51
6032;BME280;3044;43.232;27.972;2023-02-19T03:42:29;45075.72;;;-143.84;44.39
6032;BME280;3044;43.232;27.972;2023-02-19T03:45:09;45090.97;;;-143.84;44.30
6032;BME280;3044;43.232;27.972;2023-02-19T03:47:46;45087.16;;;-143.84;44.35
6032;BME280;3044;43.232;27.972;2023-02-19T03:50:20;45102.38;;;-143.84;44.34
6032;BME280;3044;43.232;27.972;2023-02-19T03:52:55;45083.34;;;-143.84;44.10
6032;BME280;3044;43.232;27.972;2023-02-19T03:55:29;45090.97;;;-143.84;44.10
6032;BME280;3044;43.232;27.972;2023-02-19T03:58:04;45096.66;;;-143.84;43.80
6032;BME280;3044;43.232;27.972;2023-02-19T04:00:38;45100.47;;;-143.84;43.61
6032;BME280;3044;43.232;27.972;2023-02-19T04:03:15;45110.00;;;-143.84;43.72
6032;BME280;3044;43.232;27.972;2023-02-19T04:05:50;45085.25;;;-143.84;43.53
6032;BME280;3044;43.232;27.972;2023-02-19T04:08:19;45085.25;;;-143.84;43.13
6032;BME280;3044;43.232;27.972;2023-02-19T04:10:49;45108.09;;;-143.84;42.82
6032;BME280;3044;43.232;27.972;2023-02-19T04:13:21;45089.06;;;-143.84;43.07
6032;BME280;3044;43.232;27.972;2023-02-19T04:15:52;45102.38;;;-143.84;42.83
6032;BME280;3044;43.232;27.972;2023-02-19T04:18:23;45090.97;;;-143.84;42.71
6032;BME280;3044;43.232;27.972;2023-02-19T04:20:53;45075.72;;;-143.84;42.39
6032;BME280;3044;43.232;27.972;2023-02-19T04:23:24;45094.78;;;-143.84;42.23
6032;BME280;3044;43.232;27.972;2023-02-19T04:25:55;45106.19;;;-143.84;41.98
6032;BME280;3044;43.232;27.972;2023-02-19T04:28:24;45090.97;;;-143.84;42.16
6032;BME280;3044;43.232;27.972;2023-02-19T04:30:51;45073.81;;;-143.84;42.17
6032;BME280;3044;43.232;27.972;2023-02-19T04:33:18;45083.34;;;-143.84;41.76
6032;BME280;3044;43.232;27.972;2023-02-19T04:35:45;45104.28;;;-143.84;41.95
6032;BME280;3044;43.232;27.972;2023-02-19T04:38:14;45073.81;;;-143.84;41.86
6032;BME280;3044;43.232;27.972;2023-02-19T04:40:41;45098.56;;;-143.84;42.19
6032;BME280;3044;43.232;27.972;2023-02-19T04:43:08;45087.16;;;-143.84;42.12
6032;BME280;3044;43.232;27.972;2023-02-19T04:45:36;45094.78;;;-143.84;41.90
6032;BME280;3044;43.232;27.972;2023-02-19T04:48:04;45090.97;;;-143.84;42.08
6032;BME280;3044;43.232;27.972;2023-02-19T04:50:31;45089.06;;;-143.84;41.89
6032;BME280;3044;43.232;27.972;2023-02-19T04:52:58;45100.47;;;-143.84;41.77
6032;BME280;3044;43.232;27.972;2023-02-19T04:55:27;45085.25;;;-143.84;41.86
6032;BME280;3044;43.232;27.972;2023-02-19T04:57:54;45077.63;;;-143.84;41.85
6032;BME280;3044;43.232;27.972;2023-02-19T05:00:21;45096.66;;;-143.84;41.71
6032;BME280;3044;43.232;27.972;2023-02-19T05:02:48;45083.34;;;-143.84;41.63
6032;BME280;3044;43.232;27.972;2023-02-19T05:05:15;45108.09;;;-143.84;41.61
6032;BME280;3044;43.232;27.972;2023-02-19T05:07:42;45096.66;;;-143.84;41.79
6032;BME280;3044;43.232;27.972;2023-02-19T05:10:09;45075.72;;;-143.84;41.85
6032;BME280;3044;43.232;27.972;2023-02-19T05:12:38;45108.09;;;-143.84;41.74
6032;BME280;3044;43.232;27.972;2023-02-19T05:15:05;45096.66;;;-143.84;42.02
6032;BME280;3044;43.232;27.972;2023-02-19T05:17:33;45070.00;;;-143.84;41.85
6032;BME280;3044;43.232;27.972;2023-02-19T05:20:00;45079.53;;;-143.84;41.61
6032;BME280;3044;43.232;27.972;2023-02-19T05:22:28;45089.06;;;-143.84;41.64
6032;BME280;3044;43.232;27.972;2023-02-19T05:24:55;45094.78;;;-143.84;41.91
6032;BME280;3044;43.232;27.972;2023-02-19T05:27:23;45083.34;;;-143.84;41.99
6032;BME280;3044;43.232;27.972;2023-02-19T05:29:51;45110.00;;;-143.84;41.61
6032;BME280;3044;43.232;27.972;2023-02-19T05:32:18;45113.81;;;-143.84;41.68
6032;BME280;3044;43.232;27.972;2023-02-19T05:34:45;45077.63;;;-143.84;41.78
6032;BME280;3044;43.232;27.972;2023-02-19T05:37:12;45104.28;;;-143.84;41.60
6032;BME280;3044;43.232;27.972;2023-02-19T05:39:40;45115.72;;;-143.84;41.80
6032;BME280;3044;43.232;27.972;2023-02-19T05:42:08;45100.47;;;-143.84;41.50
6032;BME280;3044;43.232;27.972;2023-02-19T05:44:35;45104.28;;;-143.84;41.74
6032;BME280;3044;43.232;27.972;2023-02-19T05:47:03;45094.78;;;-143.84;41.76
6032;BME280;3044;43.232;27.972;2023-02-19T05:49:30;45083.34;;;-143.84;41.93
6032;BME280;3044;43.232;27.972;2023-02-19T05:51:57;45121.44;;;-143.84;41.94
6032;BME280;3044;43.232;27.972;2023-02-19T05:54:27;45106.19;;;-143.84;41.94
6032;BME280;3044;43.232;27.972;2023-02-19T05:56:54;45096.66;;;-143.84;41.85
6032;BME280;3044;43.232;27.972;2023-02-19T05:59:23;45096.66;;;-143.84;41.65
6032;BME280;3044;43.232;27.972;2023-02-19T06:01:51;45102.38;;;-143.84;41.91
6032;BME280;3044;43.232;27.972;2023-02-19T06:04:20;45090.97;;;-143.84;41.95
6032;BME280;3044;43.232;27.972;2023-02-19T06:06:48;45108.09;;;-143.84;41.74
6032;BME280;3044;43.232;27.972;2023-02-19T06:09:16;45083.34;;;-143.84;41.61
6032;BME280;3044;43.232;27.972;2023-02-19T06:11:43;45068.13;;;-143.84;41.63
6032;BME280;3044;43.232;27.972;2023-02-19T06:14:11;45081.44;;;-143.84;41.48
6032;BME280;3044;43.232;27.972;2023-02-19T06:16:39;45106.19;;;-143.84;41.48
6032;BME280;3044;43.232;27.972;2023-02-19T06:19:06;45075.72;;;-143.84;41.49
6032;BME280;3044;43.232;27.972;2023-02-19T06:21:35;45073.81;;;-143.84;41.11
6032;BME280;3044;43.232;27.972;2023-02-19T06:24:06;45090.97;;;-143.84;41.06
6032;BME280;3044;43.232;27.972;2023-02-19T06:26:34;45098.56;;;-143.84;40.87
6032;BME280;3044;43.232;27.972;2023-02-19T06:29:02;45098.56;;;-143.84;40.90
6032;BME280;3044;43.232;27.972;2023-02-19T06:31:29;45089.06;;;-143.84;40.68
6032;BME280;3044;43.232;27.972;2023-02-19T06:33:56;45068.13;;;-143.84;40.77
6032;BME280;3044;43.232;27.972;2023-02-19T06:36:23;45052.88;;;-143.84;40.55
6032;BME280;3044;43.232;27.972;2023-02-19T06:38:51;45068.13;;;-143.84;40.44
6032;BME280;3044;43.232;27.972;2023-02-19T06:41:19;45075.72;;;-143.84;40.31
6032;BME280;3044;43.232;27.972;2023-02-19T06:43:46;45079.53;;;-143.84;40.38
6032;BME280;3044;43.232;27.972;2023-02-19T06:46:13;45092.88;;;-143.84;40.43
6032;BME280;3044;43.232;27.972;2023-02-19T06:48:41;45083.34;;;-143.84;40.06
6032;BME280;3044;43.232;27.972;2023-02-19T06:51:11;45049.06;;;-143.84;40.17
6032;BME280;3044;43.232;27.972;2023-02-19T06:53:38;45075.72;;;-143.84;40.27
6032;BME280;3044;43.232;27.972;2023-02-19T06:56:21;45075.72;;;-143.84;40.35
6032;BME280;3044;43.232;27.972;2023-02-19T06:58:49;45068.13;;;-143.84;40.32
6032;BME280;3044;43.232;27.972;2023-02-19T07:01:16;45083.34;;;-143.84;40.46
6032;BME280;3044;43.232;27.972;2023-02-19T07:03:43;45077.63;;;-143.84;40.54
6032;BME280;3044;43.232;27.972;2023-02-19T07:06:11;45079.53;;;-143.84;40.43
6032;BME280;3044;43.232;27.972;2023-02-19T07:08:38;45064.31;;;-143.84;40.58
6032;BME280;3044;43.232;27.972;2023-02-19T07:11:06;45090.97;;;-143.84;40.52
6032;BME280;3044;43.232;27.972;2023-02-19T07:13:33;45081.44;;;-143.84;40.66
6032;BME280;3044;43.232;27.972;2023-02-19T07:16:03;45068.13;;;-143.84;40.83
6032;BME280;3044;43.232;27.972;2023-02-19T07:18:32;45052.88;;;-143.84;40.47
6032;BME280;3044;43.232;27.972;2023-02-19T07:21:01;45062.41;;;-143.84;40.77
6032;BME280;3044;43.232;27.972;2023-02-19T07:23:29;45056.69;;;-143.84;40.37
6032;BME280;3044;43.232;27.972;2023-02-19T07:25:57;45073.81;;;-143.84;40.40
6032;BME280;3044;43.232;27.972;2023-02-19T07:28:25;45085.25;;;-143.84;40.66
6032;BME280;3044;43.232;27.972;2023-02-19T07:30:53;45075.72;;;-143.84;40.17
6032;BME280;3044;43.232;27.972;2023-02-19T07:33:20;45073.81;;;-143.84;40.14
6032;BME280;3044;43.232;27.972;2023-02-19T07:35:48;45054.78;;;-143.84;40.10
6032;BME280;3044;43.232;27.972;2023-02-19T07:38:16;45085.25;;;-143.84;39.85
6032;BME280;3044;43.232;27.972;2023-02-19T07:40:50;45077.63;;;-143.84;39.42
6032;BME280;3044;43.232;27.972;2023-02-19T07:43:17;45081.44;;;-143.84;39.74
6032;BME280;3044;43.232;27.972;2023-02-19T07:45:47;45081.44;;;-143.84;39.50
6032;BME280;3044;43.232;27.972;2023-02-19T07:48:15;45060.50;;;-143.84;39.38
6032;BME280;3044;43.232;27.972;2023-02-19T07:50:49;45060.50;;;-143.84;39.14
6032;BME280;3044;43.232;27.972;2023-02-19T07:53:17;45096.66;;;-143.84;38.40
6032;BME280;3044;43.232;27.972;2023-02-19T07:55:44;45079.53;;;-143.84;38.31
6032;BME280;3044;43.232;27.972;2023-02-19T07:58:11;45071.91;;;-143.84;37.98
6032;BME280;3044;43.232;27.972;2023-02-19T08:00:38;45054.78;;;-143.84;37.84
6032;BME280;3044;43.232;27.972;2023-02-19T08:03:07;45028.13;;;-143.84;37.57
6032;BME280;3044;43.232;27.972;2023-02-19T08:05:36;45066.22;;;-143.84;37.71
6032;BME280;3044;43.232;27.972;2023-02-19T08:08:05;45049.06;;;-143.84;37.54
6032;BME280;3044;43.232;27.972;2023-02-19T08:10:32;45070.00;;;-143.84;37.29
6032;BME280;3044;43.232;27.972;2023-02-19T08:13:17;45047.16;;;-143.84;37.41
6032;BME280;3044;43.232;27.972;2023-02-19T08:15:52;45047.16;;;-143.84;37.08
6032;BME280;3044;43.232;27.972;2023-02-19T08:18:23;45035.75;;;-143.84;36.93
6032;BME280;3044;43.232;27.972;2023-02-19T08:20:51;45043.34;;;-143.84;36.51
6032;BME280;3044;43.232;27.972;2023-02-19T08:23:21;45022.41;;;-143.84;36.70
6032;BME280;3044;43.232;27.972;2023-02-19T08:25:49;45020.50;;;-143.84;36.45
6032;BME280;3044;43.232;27.972;2023-02-19T08:28:17;45022.41;;;-143.84;36.04
6032;BME280;3044;43.232;27.972;2023-02-19T08:30:46;45045.25;;;-143.84;35.90
6032;BME280;3044;43.232;27.972;2023-02-19T08:33:15;45052.88;;;-143.84;36.04
6032;BME280;3044;43.232;27.972;2023-02-19T08:35:46;45014.78;;;-143.84;35.77
6032;BME280;3044;43.232;27.972;2023-02-19T08:38:15;45049.06;;;-143.84;35.99
6032;BME280;3044;43.232;27.972;2023-02-19T08:40:42;45033.84;;;-143.84;35.93
6032;BME280;3044;43.232;27.972;2023-02-19T08:43:13;45056.69;;;-143.84;36.04
6032;BME280;3044;43.232;27.972;2023-02-19T08:45:42;45043.34;;;-143.84;36.04
6032;BME280;3044;43.232;27.972;2023-02-19T08:48:10;45041.44;;;-143.84;36.08
6032;BME280;3044;43.232;27.972;2023-02-19T08:50:38;45031.94;;;-143.84;35.80
6032;BME280;3044;43.232;27.972;2023-02-19T08:53:06;45041.44;;;-143.84;35.75
6032;BME280;3044;43.232;27.972;2023-02-19T08:55:36;45030.03;;;-143.84;35.67
6032;BME280;3044;43.232;27.972;2023-02-19T08:58:04;45035.75;;;-143.84;35.65
6032;BME280;3044;43.232;27.972;2023-02-19T09:00:31;45031.94;;;-143.84;35.84
6032;BME280;3044;43.232;27.972;2023-02-19T09:02:58;45014.78;;;-143.84;35.82
6032;BME280;3044;43.232;27.972;2023-02-19T09:05:25;45014.78;;;-143.84;35.11
6032;BME280;3044;43.232;27.972;2023-02-19T09:07:52;45035.75;;;-143.84;35.23
6032;BME280;3044;43.232;27.972;2023-02-19T09:10:21;45031.94;;;-143.84;35.39
6032;BME280;3044;43.232;27.972;2023-02-19T09:12:48;45031.94;;;-143.84;35.33
6032;BME280;3044;43.232;27.972;2023-02-19T09:15:15;44993.84;;;-143.84;35.39
6032;BME280;3044;43.232;27.972;2023-02-19T09:17:43;45035.75;;;-143.84;35.34
6032;BME280;3044;43.232;27.972;2023-02-19T09:20:11;45007.19;;;-143.84;34.52
6032;BME280;3044;43.232;27.972;2023-02-19T09:22:38;44999.56;;;-143.84;34.89
6032;BME280;3044;43.232;27.972;2023-02-19T09:25:05;45039.53;;;-143.84;34.74
6032;BME280;3044;43.232;27.972;2023-02-19T09:27:34;45024.31;;;-143.84;35.02
6032;BME280;3044;43.232;27.972;2023-02-19T09:30:01;45018.59;;;-143.84;33.86
6032;BME280;3044;43.232;27.972;2023-02-19T09:32:29;44999.56;;;-143.84;34.22
6032;BME280;3044;43.232;27.972;2023-02-19T09:34:56;45001.47;;;-143.84;33.74
6032;BME280;3044;43.232;27.972;2023-02-19T09:37:25;44978.63;;;-143.84;33.45
6032;BME280;3044;43.232;27.972;2023-02-19T09:39:53;45007.19;;;-143.84;33.32
6032;BME280;3044;43.232;27.972;2023-02-19T09:42:23;44993.84;;;-143.84;33.63
6032;BME280;3044;43.232;27.972;2023-02-19T09:44:54;44995.75;;;-143.84;32.93
6032;BME280;3044;43.232;27.972;2023-02-19T09:47:23;44974.81;;;-143.84;33.40
6032;BME280;3044;43.232;27.972;2023-02-19T09:49:53;45001.47;;;-143.84;33.17
6032;BME280;3044;43.232;27.972;2023-02-19T09:52:29;45001.47;;;-143.84;33.39
6032;BME280;3044;43.232;27.972;2023-02-19T09:55:00;45014.78;;;-143.84;33.72
6032;BME280;3044;43.232;27.972;2023-02-19T09:57:29;44997.66;;;-143.84;33.08
6032;BME280;3044;43.232;27.972;2023-02-19T10:00:03;45014.78;;;-143.84;33.29
6032;BME280;3044;43.232;27.972;2023-02-19T10:02:31;45005.28;;;-143.84;32.93
6032;BME280;3044;43.232;27.972;2023-02-19T10:04:59;44993.84;;;-143.84;33.06
6032;BME280;3044;43.232;27.972;2023-02-19T10:07:34;45010.97;;;-143.84;33.11
6032;BME280;3044;43.232;27.972;2023-02-19T10:10:21;45007.19;;;-143.84;33.08
6032;BME280;3044;43.232;27.972;2023-02-19T10:12:53;45007.19;;;-143.84;32.90
6032;BME280;3044;43.232;27.972;2023-02-19T10:15:28;45003.38;;;-143.84;32.27
6032;BME280;3044;43.232;27.972;2023-02-19T10:17:56;45003.38;;;-143.84;33.17
6032;BME280;3044;43.232;27.972;2023-02-19T10:20:25;44995.75;;;-143.84;32.95
6032;BME280;3044;43.232;27.972;2023-02-19T10:22:58;45041.44;;;-143.84;33.23
6032;BME280;3044;43.232;27.972;2023-02-19T10:25:26;44988.13;;;-143.84;33.29
6032;BME280;3044;43.232;27.972;2023-02-19T10:27:53;44993.84;;;-143.84;32.45
6032;BME280;3044;43.232;27.972;2023-02-19T10:30:24;45018.59;;;-143.84;32.58
6032;BME280;3044;43.232;27.972;2023-02-19T10:33:00;45007.19;;;-143.84;32.88
6032;BME280;3044;43.232;27.972;2023-02-19T10:35:28;45018.59;;;-143.84;32.92
6032;BME280;3044;43.232;27.972;2023-02-19T10:37:56;44978.63;;;-143.84;33.03
6032;BME280;3044;43.232;27.972;2023-02-19T10:40:25;45068.13;;;-143.84;33.39
6032;BME280;3044;43.232;27.972;2023-02-19T10:42:55;45022.41;;;-143.84;33.40
6032;BME280;3044;43.232;27.972;2023-02-19T10:45:30;45005.28;;;-143.84;33.41
6032;BME280;3044;43.232;27.972;2023-02-19T10:48:00;45001.47;;;-143.84;33.17
6032;BME280;3044;43.232;27.972;2023-02-19T10:50:31;45024.31;;;-143.84;33.15
6032;BME280;3044;43.232;27.972;2023-02-19T10:52:59;44986.22;;;-143.84;33.48
6032;BME280;3044;43.232;27.972;2023-02-19T10:55:30;45010.97;;;-143.84;33.15
6032;BME280;3044;43.232;27.972;2023-02-19T10:57:57;45001.47;;;-143.84;33.36
6032;BME280;3044;43.232;27.972;2023-02-19T11:00:42;45035.75;;;-143.84;33.69
6032;BME280;3044;43.232;27.972;2023-02-19T11:03:17;45031.94;;;-143.84;33.80
6032;BME280;3044;43.232;27.972;2023-02-19T11:05:56;44991.94;;;-143.84;33.53
6032;BME280;3044;43.232;27.972;2023-02-19T11:08:26;44993.84;;;-143.84;33.74
6032;BME280;3044;43.232;27.972;2023-02-19T11:10:53;45003.38;;;-143.84;33.57
6032;BME280;3044;43.232;27.972;2023-02-19T11:13:25;45009.09;;;-143.84;33.50
6032;BME280;3044;43.232;27.972;2023-02-19T11:15:58;45005.28;;;-143.84;33.61
6032;BME280;3044;43.232;27.972;2023-02-19T11:18:28;45007.19;;;-143.84;33.61
6032;BME280;3044;43.232;27.972;2023-02-19T11:20:58;45007.19;;;-143.84;33.22
6032;BME280;3044;43.232;27.972;2023-02-19T11:23:28;45009.09;;;-143.84;33.42
6032;BME280;3044;43.232;27.972;2023-02-19T11:25:59;45007.19;;;-143.84;32.89
6032;BME280;3044;43.232;27.972;2023-02-19T11:28:30;45005.28;;;-143.84;33.60
6032;BME280;3044;43.232;27.972;2023-02-19T11:31:26;45005.28;;;-143.84;33.71
6032;BME280;3044;43.232;27.972;2023-02-19T11:33:57;45024.31;;;-143.84;33.82
6032;BME280;3044;43.232;27.972;2023-02-19T11:36:30;45045.25;;;-143.84;33.64
6032;BME280;3044;43.232;27.972;2023-02-19T11:39:00;45020.50;;;-143.84;33.70
6032;BME280;3044;43.232;27.972;2023-02-19T11:44:35;45028.13;;;-143.84;33.95
6032;BME280;3044;43.232;27.972;2023-02-19T11:50:17;45018.59;;;-143.84;34.58
6032;BME280;3044;43.232;27.972;2023-02-19T11:52:54;44984.31;;;-143.84;34.22
6032;BME280;3044;43.232;27.972;2023-02-19T11:55:35;45022.41;;;-143.84;34.14
6032;BME280;3044;43.232;27.972;2023-02-19T11:58:20;45039.53;;;-143.84;34.20
6032;BME280;3044;43.232;27.972;2023-02-19T12:00:58;45001.47;;;-143.84;33.66
6032;BME280;3044;43.232;27.972;2023-02-19T12:06:22;45007.19;;;-143.84;33.80
6032;BME280;3044;43.232;27.972;2023-02-19T12:09:13;45035.75;;;-143.84;34.07
6032;BME280;3044;43.232;27.972;2023-02-19T12:12:00;45026.22;;;-143.84;34.49
6032;BME280;3044;43.232;27.972;2023-02-19T12:17:46;45016.69;;;-143.84;34.12
6032;BME280;3044;43.232;27.972;2023-02-19T12:20:25;45031.94;;;-143.84;34.56
6032;BME280;3044;43.232;27.972;2023-02-19T12:23:17;45020.50;;;-143.84;33.71
6032;BME280;3044;43.232;27.972;2023-02-19T12:25:56;45026.22;;;-143.84;34.00
6032;BME280;3044;43.232;27.972;2023-02-19T12:34:45;45010.97;;;-143.84;34.05
6032;BME280;3044;43.232;27.972;2023-02-19T12:37:26;44995.75;;;-143.84;34.17
6032;BME280;3044;43.232;27.972;2023-02-19T12:40:02;44995.75;;;-143.84;34.53
6032;BME280;3044;43.232;27.972;2023-02-19T12:42:50;45016.69;;;-143.84;34.23
6032;BME280;3044;43.232;27.972;2023-02-19T12:45:27;45041.44;;;-143.84;34.48
6032;BME280;3044;43.232;27.972;2023-02-19T12:48:00;45007.19;;;-143.84;34.49
6032;BME280;3044;43.232;27.972;2023-02-19T12:50:30;45009.09;;;-143.84;34.76
6032;BME280;3044;43.232;27.972;2023-02-19T12:53:06;45014.78;;;-143.84;35.00
6032;BME280;3044;43.232;27.972;2023-02-19T12:55:41;45031.94;;;-143.84;34.86
6032;BME280;3044;43.232;27.972;2023-02-19T12:58:25;45016.69;;;-143.84;34.74
6032;BME280;3044;43.232;27.972;2023-02-19T13:00:56;45026.22;;;-143.84;34.69
6032;BME280;3044;43.232;27.972;2023-02-19T13:03:28;45030.03;;;-143.84;34.89
6032;BME280;3044;43.232;27.972;2023-02-19T13:06:00;45030.03;;;-143.84;35.02
6032;BME280;3044;43.232;27.972;2023-02-19T13:08:34;45033.84;;;-143.84;34.91
6032;BME280;3044;43.232;27.972;2023-02-19T13:11:06;45026.22;;;-143.84;35.30
6032;BME280;3044;43.232;27.972;2023-02-19T13:13:39;45037.66;;;-143.84;35.34
6032;BME280;3044;43.232;27.972;2023-02-19T13:16:13;45030.03;;;-143.84;35.53
6032;BME280;3044;43.232;27.972;2023-02-19T13:18:43;45026.22;;;-143.84;35.33
6032;BME280;3044;43.232;27.972;2023-02-19T13:21:12;44997.66;;;-143.84;35.22
6032;BME280;3044;43.232;27.972;2023-02-19T13:24:06;45005.28;;;-143.84;35.22
6032;BME280;3044;43.232;27.972;2023-02-19T13:26:46;45039.53;;;-143.84;35.19
6032;BME280;3044;43.232;27.972;2023-02-19T13:29:30;45012.88;;;-143.84;35.22
6032;BME280;3044;43.232;27.972;2023-02-19T13:32:16;45041.44;;;-143.84;35.08